Terminal Aerodrome Forecast
Issued by NWS

Home | Current Version | Previous Version | Text Only | Print | Product List | Glossary On
Versions: 1 2 3 4 5 6 7 8 9 10 11 12 13 14 15 16 17 18 19 20 21 22
000
FTUS43 KAPX 300551
TAFTVC
TAF
KTVC 300551Z 3006/3106 35018G28KT 6SM -SHSN BLSN BKN025 OVC035
      TEMPO 3006/3010 3SM -SHSN BLSN SCT025 OVC035
     FM301000 34012G22KT 6SM -SHSN BLSN OVC025
     FM301400 34008KT P6SM -SHSN OVC025
     FM301900 31006KT P6SM BKN025
     FM310000 00000KT P6SM BKN025=

USA.gov is the U.S. government's official web portal to all federal, state and local government web resources and services.